Time,TemperatureF,DewpointF,PressureIn,WindDirection,WindDirectionDegrees,WindSpeedMPH,WindSpeedGustMPH,Humidity,HourlyPrecipIn,Conditions,Clouds,dailyrainin,SoftwareType,DateUTC
2014-01-01 00:00:00,-0.7,-5.4,30.12,North,0,0.0,0.0,80,0.00,,---,0.00,VWS V14.00,2014-01-01 05:00:00,
2014-01-01 00:59:00,-2.0,-7.2,30.13,ENE,70,0.0,0.0,78,0.00,,---,0.00,VWS V14.00,2014-01-01 05:59:00,
2014-01-01 01:29:00,-2.8,-7.7,30.14,ENE,70,0.0,0.0,79,0.00,,---,0.00,VWS V14.00,2014-01-01 06:29:00,
2014-01-01 01:59:00,-4.3,-9.4,30.15,ENE,70,0.0,1.0,78,0.00,,---,0.00,VWS V14.00,2014-01-01 06:59:00,
2014-01-01 02:29:00,-5.7,-10.8,30.17,ENE,70,0.0,0.0,78,0.00,,---,0.00,VWS V14.00,2014-01-01 07:29:00,
2014-01-01 02:59:00,-6.8,-11.8,30.18,ENE,70,0.0,0.0,78,0.00,,---,0.00,VWS V14.00,2014-01-01 07:59:00,
2014-01-01 03:29:00,-7.3,-11.8,30.18,ENE,70,0.0,0.0,80,0.00,,---,0.00,VWS V14.00,2014-01-01 08:29:00,
2014-01-01 03:59:00,-7.3,-11.6,30.19,ENE,69,0.0,0.0,81,0.00,,---,0.00,VWS V14.00,2014-01-01 08:59:00,
2014-01-01 04:29:00,-5.7,-9.0,30.19,ENE,61,1.0,2.0,85,0.00,,---,0.00,VWS V14.00,2014-01-01 09:29:00,
2014-01-01 04:59:00,-4.1,-7.5,30.20,East,88,2.0,3.0,85,0.00,,---,0.00,VWS V14.00,2014-01-01 09:59:00,
2014-01-01 05:29:00,-4.1,-7.7,30.21,ENE,58,0.0,2.0,84,0.00,,---,0.00,VWS V14.00,2014-01-01 10:29:00,
2014-01-01 05:59:00,-4.1,-7.9,30.23,NE,51,0.0,2.0,83,0.00,,---,0.00,VWS V14.00,2014-01-01 10:59:00,
2014-01-01 06:29:00,-5.1,-8.9,30.24,NNE,30,1.0,2.0,83,0.00,,---,0.00,VWS V14.00,2014-01-01 11:29:00,
2014-01-01 06:59:00,-5.8,-9.6,30.25,ENE,69,0.0,2.0,83,0.00,,---,0.00,VWS V14.00,2014-01-01 11:59:00,
2014-01-01 07:29:00,-6.2,-10.2,30.27,WNW,301,2.0,2.0,82,0.00,,---,0.00,VWS V14.00,2014-01-01 12:29:00,
2014-01-01 07:59:00,-6.1,-9.9,30.28,SSE,153,1.0,4.0,83,0.00,,---,0.00,VWS V14.00,2014-01-01 12:59:00,
2014-01-01 08:29:00,-6.3,-10.4,30.30,NNE,32,1.0,2.0,82,0.00,,---,0.00,VWS V14.00,2014-01-01 13:29:00,
2014-01-01 08:59:00,-5.7,-10.0,30.31,East,90,2.0,3.0,81,0.00,,---,0.00,VWS V14.00,2014-01-01 13:59:00,
2014-01-01 09:29:00,-6.4,-11.2,30.33,SE,146,2.0,3.0,79,0.00,,---,0.00,VWS V14.00,2014-01-01 14:29:00,
2014-01-01 09:59:00,-5.2,-10.0,30.34,SW,235,1.0,4.0,79,0.00,,---,0.00,VWS V14.00,2014-01-01 14:59:00,
2014-01-01 10:29:00,-4.6,-10.0,30.36,NE,46,0.0,3.0,77,0.00,,---,0.00,VWS V14.00,2014-01-01 15:29:00,
2014-01-01 10:59:00,-6.7,-12.0,30.36,SSE,163,1.0,2.0,77,0.00,,---,0.00,VWS V14.00,2014-01-01 15:59:00,
2014-01-01 11:29:00,-5.4,-10.5,30.36,NNW,328,2.0,3.0,78,0.00,,---,0.00,VWS V14.00,2014-01-01 16:29:00,
2014-01-01 11:59:00,-5.7,-11.3,30.35,WSW,244,2.0,4.0,76,0.00,,---,0.00,VWS V14.00,2014-01-01 16:59:00,
2014-01-01 12:29:00,-3.2,-9.1,30.37,SSE,157,1.0,4.0,75,0.00,,---,0.00,VWS V14.00,2014-01-01 17:29:00,
2014-01-01 12:59:00,-4.7,-11.7,30.38,ESE,121,1.0,2.0,71,0.00,,---,0.00,VWS V14.00,2014-01-01 17:59:00,
2014-01-01 13:29:00,-6.8,-12.4,30.40,NNE,19,1.0,3.0,76,0.00,,---,0.00,VWS V14.00,2014-01-01 18:29:00,
2014-01-01 13:59:00,-7.3,-12.9,30.41,NNE,28,5.0,5.0,76,0.00,,---,0.00,VWS V14.00,2014-01-01 18:59:00,
2014-01-01 14:29:00,-7.6,-12.9,30.41,SSE,151,1.0,4.0,77,0.00,,---,0.00,VWS V14.00,2014-01-01 19:29:00,
2014-01-01 14:59:00,-9.0,-14.2,30.42,NW,321,2.0,2.0,77,0.00,,---,0.00,VWS V14.00,2014-01-01 19:59:00,
2014-01-01 15:29:00,-9.2,-14.4,30.42,NNE,21,1.0,4.0,77,0.00,,---,0.00,VWS V14.00,2014-01-01 20:29:00,
2014-01-01 15:59:00,-10.2,-15.4,30.43,WNW,287,1.0,4.0,77,0.00,,---,0.00,VWS V14.00,2014-01-01 20:59:00,
2014-01-01 16:29:00,-12.0,-16.9,30.44,East,97,1.0,1.0,78,0.00,,---,0.00,VWS V14.00,2014-01-01 21:29:00,
2014-01-01 16:59:00,-13.9,-18.5,30.46,ENE,64,1.0,2.0,79,0.00,,---,0.00,VWS V14.00,2014-01-01 21:59:00,
2014-01-01 17:29:00,-15.3,-19.9,30.47,NNW,348,0.0,1.0,79,0.00,,---,0.00,VWS V14.00,2014-01-01 22:29:00,
2014-01-01 17:59:00,-16.7,-21.0,30.47,NNE,12,0.0,0.0,80,0.00,,---,0.00,VWS V14.00,2014-01-01 22:59:00,
2014-01-01 18:29:00,-16.3,-20.4,30.49,SE,124,0.0,2.0,81,0.00,,---,0.00,VWS V14.00,2014-01-01 23:29:00,
2014-01-01 18:59:00,-17.0,-21.3,30.50,NNE,19,0.0,2.0,80,0.00,,---,0.00,VWS V14.00,2014-01-01 23:59:00,
2014-01-01 19:29:00,-18.1,-22.6,30.49,ENE,67,0.0,0.0,79,0.00,,---,0.00,VWS V14.00,2014-01-02 00:29:00,
2014-01-01 20:00:00,-19.2,-23.5,30.50,South,189,1.0,2.0,80,0.00,,---,0.00,VWS V14.00,2014-01-02 01:00:00,
2014-01-01 20:29:00,-20.0,-24.2,30.50,South,189,0.0,1.0,80,0.00,,---,0.00,VWS V14.00,2014-01-02 01:29:00,
2014-01-01 20:59:00,-19.9,-23.7,30.51,South,189,0.0,0.0,82,0.00,,---,0.00,VWS V14.00,2014-01-02 01:59:00,
2014-01-01 21:29:00,-20.0,-24.0,30.51,South,187,0.0,0.0,81,0.00,,---,0.00,VWS V14.00,2014-01-02 02:29:00,
2014-01-01 21:59:00,-20.6,-24.8,30.52,South,187,0.0,0.0,80,0.00,,---,0.00,VWS V14.00,2014-01-02 02:59:00,
2014-01-01 22:29:00,-21.2,-25.4,30.53,South,187,0.0,0.0,80,0.00,,---,0.00,VWS V14.00,2014-01-02 03:29:00,
2014-01-01 22:59:00,-22.3,-26.5,30.53,South,187,0.0,0.0,80,0.00,,---,0.00,VWS V14.00,2014-01-02 03:59:00,
2014-01-01 23:29:00,-22.0,-25.7,30.53,South,187,0.0,0.0,82,0.00,,---,0.00,VWS V14.00,2014-01-02 04:29:00,
2014-01-01 23:59:00,-22.9,-27.1,30.52,South,187,0.0,0.0,80,0.00,,---,0.00,VWS V14.00,2014-01-02 04:59:00,